• Join FlightAware (Why Join?)
  • Login
  • US Flag 
07:54AM EST


 

Airport Tracker/Info


-or-


 

Live Flight TrackerFlight Track Log ✈ SWA560 ✈ 02-Feb-2014 ✈ KRNO - KSAN

Flight Track Log - Related Links

Times and Time Zones

All times are in EST time to prevent confusion due to time zone crossing. See the SWA560 flight status page for this flight to view local times or setup timezone preferences in your user account.

Time Position Orientation Groundspeed Altitude Reporting Facility
EST Latitude Longitude Course Direction KTS MPH feet Rate Location/Type
12:42PM 39.4333 -119.7667 191° South 193 222 6,800  Level Northern Cal TRACON
12:43PM 39.3667 -119.7833 191° South 239 275 9,700 2,640 Climbing Northern Cal TRACON
12:45PM 39.2636 -119.7758 177° South 286 329 13,400 2,760 Climbing Oakland Center
12:46PM 39.1686 -119.7664 176° South 325 374 16,700 3,300 Climbing Oakland Center
12:47PM 39.0711 -119.7389 168° South 358 412 20,100 3,000 Climbing Oakland Center
12:48PM 38.9731 -119.7131 168° South 360 414 22,800 2,520 Climbing Oakland Center
12:49PM 38.8661 -119.6831 168° South 385 443 25,300 2,040 Climbing Oakland Center
12:50PM 38.7553 -119.6533 168° South 403 464 27,000 780 Climbing Oakland Center
12:51PM 38.6439 -119.6236 168° South 409 471 27,000 420 Level Oakland Center
12:52PM 38.5344 -119.5939 168° South 405 466 27,900 960 Climbing Oakland Center
12:53PM 38.4011 -119.5583 168° South 414 476 29,000 960 Climbing Oakland Center
12:54PM 38.2872 -119.5275 168° South 419 482 29,900 960 Climbing Oakland Center
12:55PM 38.1669 -119.4964 169° South 431 496 31,000 540 Climbing Oakland Center
12:56PM 38.0464 -119.4714 171° South 436 502 31,000 780 Level Oakland Center
12:57PM 37.9214 -119.4472 171° South 447 514 32,600 1,440 Climbing Oakland Center
12:58PM 37.7981 -119.4208 170° South 448 516 34,000 1,440 Climbing Oakland Center
12:59PM 37.6714 -119.3953 171° South 460 529 35,600 1,440 Climbing Oakland Center
01:00PM 37.5464 -119.3697 171° South 456 525 37,000 960 Climbing Oakland Center
01:01PM 37.4211 -119.3433 171° South 454 522 37,600 660 Climbing Oakland Center
01:02PM 37.2936 -119.3189 171° South 459 528 38,400 960 Climbing Oakland Center
01:03PM 37.1636 -119.2978 173° South 465 535 39,600 1,140 Climbing Oakland Center
01:04PM 37.0358 -119.2697 170° South 465 535 40,800 660 Climbing Oakland Center
01:05PM 36.9114 -119.2331 167° South 461 531 41,000 60 Climbing Oakland Center
01:06PM 36.7825 -119.1967 167° South 466 536 41,000  Level Oakland Center
01:07PM 36.6525 -119.1597 167° South 474 545 41,000  Level Oakland Center
01:08PM 36.4992 -119.1144 167° South 472 543 41,000  Level Oakland Center
01:09PM 36.3742 -119.0814 168° South 462 532 41,000  Level Oakland Center
01:10PM 36.2528 -119.0494 168° South 450 518 41,000  Level Oakland Center
01:11PM 36.1336 -119.0169 168° South 443 510 41,000  Level Oakland Center
01:12PM 36.0119 -118.9833 167° South 445 512 41,000  Level Oakland Center
01:13PM 35.8925 -118.9511 168° South 442 509 41,000  Level Oakland Center
01:14PM 35.8406 -118.9372 168° South 441 507 41,000  Level Los Angeles Center
01:15PM 35.6978 -118.8986 168° South 438 504 41,000  Level Los Angeles Center
01:16PM 35.5783 -118.8661 168° South 437 503 41,000  Level Los Angeles Center
01:17PM 35.4592 -118.8339 168° South 438 504 41,000  Level Los Angeles Center
01:18PM 35.3392 -118.8019 168° South 439 505 41,000  Level Los Angeles Center
01:19PM 35.2203 -118.7703 168° South 438 504 41,000  Level Los Angeles Center
01:20PM 35.1022 -118.7392 168° South 433 498 41,000  Level Los Angeles Center
01:21PM 34.9586 -118.7006 168° South 438 504 41,000  Level Los Angeles Center
01:22PM 34.8481 -118.6728 168° South 444 511 41,000  Level Los Angeles Center
01:23PM 34.7253 -118.6394 167° South 450 518 41,000  Level Los Angeles Center
01:24PM 34.5786 -118.6031 168° South 449 517 41,000  Level Los Angeles Center
01:25PM 34.4578 -118.5711 168° South 445 512 41,000  Level Los Angeles Center
01:26PM 34.3369 -118.5386 167° South 444 511 41,000  Level Los Angeles Center
01:27PM 34.2181 -118.5072 168° South 439 505 41,000  Level Los Angeles Center
01:28PM 34.1003 -118.4767 168° South 434 499 41,000 -840 Level Los Angeles Center
01:29PM 33.9811 -118.4453 168° South 450 518 39,300 -2,400 Descending Los Angeles Center
01:30PM 33.8550 -118.3306 143° Southeast 494 568 36,100 -2,880 Descending Los Angeles Center
01:31PM 33.7636 -118.2186 134° Southeast 496 571 33,400 -2,880 Descending Los Angeles Center
01:32PM 33.6614 -118.0847 133° Southeast 488 562 30,200 -3,420 Descending Los Angeles Center
01:33PM 33.5669 -117.9661 134° Southeast 489 563 26,400 -3,060 Descending Los Angeles Center
01:34PM 33.4733 -117.8481 134° Southeast 490 564 23,900 -2,520 Descending Los Angeles Center
01:35PM 33.3850 -117.7372 134° Southeast 466 536 21,300 -2,220 Descending Los Angeles Center
01:36PM 33.3014 -117.6303 133° Southeast 446 513 19,300 -2,040 Descending Los Angeles Center
01:37PM 33.2211 -117.5369 136° Southeast 412 474 17,100 -2,700 Descending Los Angeles Center
01:38PM 33.1178 -117.4508 145° Southeast 383 441 13,800 -2,520 Descending Los Angeles Center
01:39PM 33.0347 -117.3872 147° Southeast 363 418 11,900 -1,860 Descending Los Angeles Center
01:40PM 32.9667 -117.3333 146° Southeast 304 350 10,000 -1,980 Descending Southern California TRACON
01:42PM 32.8833 -117.2667 146° Southeast 297 342 7,800 -1,500 Descending Southern California TRACON
01:43PM 32.8275 -117.2236 147° Southeast 294 338 7,000 -540 Descending Los Angeles Center
01:44PM 32.7964 -117.1453 115° Southeast 259 298 6,800 -540 Descending Los Angeles Center
01:44PM 32.7833 -117.0667 101° East 234 269 6,000 -720 Descending Southern California TRACON
01:45PM 32.7667 -116.9833 103° East 232 267 5,500 -720 Descending Southern California TRACON
01:47PM 32.7167 -116.9833 180° South 219 252 4,500 -840 Descending Southern California TRACON
01:47PM 32.7000 -117.0333 248° West 179 206 3,900 -900 Descending Southern California TRACON
01:48PM 32.7000 -117.0833 270° West 146 168 2,800 -1,380 Descending Southern California TRACON
01:49PM 32.7167 -117.1167 301° West 148 170 1,200 -1,200 Descending Southern California TRACON
01:50PM 32.7333 -117.1667 292° West 132 152 600 -720 Descending Southern California TRACON
01:53PM 32.7333 -117.1833 276° West  Level FlightAware Approximate